sensor_id;sensor_type;location;lat;lon;timestamp;temperature;humidity
1950;DHT22;975;48.760;9.152;2023-03-01T00:46:54;2.30;94.80
1950;DHT22;975;48.760;9.152;2023-03-01T00:49:21;-0.30;99.90
1950;DHT22;975;48.760;9.152;2023-03-01T00:51:50;-0.30;99.90
1950;DHT22;975;48.760;9.152;2023-03-01T00:54:17;-0.30;99.90
1950;DHT22;975;48.760;9.152;2023-03-01T00:56:45;-0.30;99.90
1950;DHT22;975;48.760;9.152;2023-03-01T00:59:12;-0.30;99.90
1950;DHT22;975;48.760;9.152;2023-03-01T01:01:40;-0.30;99.90
1950;DHT22;975;48.760;9.152;2023-03-01T01:04:08;-0.30;99.90
1950;DHT22;975;48.760;9.152;2023-03-01T01:06:42;-0.40;99.90
1950;DHT22;975;48.760;9.152;2023-03-01T01:09:12;-0.30;99.90
1950;DHT22;975;48.760;9.152;2023-03-01T01:11:45;-0.30;99.90
1950;DHT22;975;48.760;9.152;2023-03-01T01:14:12;-0.40;99.90
1950;DHT22;975;48.760;9.152;2023-03-01T01:16:39;-0.40;99.90
1950;DHT22;975;48.760;9.152;2023-03-01T01:19:12;-0.40;99.90
1950;DHT22;975;48.760;9.152;2023-03-01T01:31:37;-0.40;99.90
1950;DHT22;975;48.760;9.152;2023-03-01T01:34:06;-0.40;99.90
1950;DHT22;975;48.760;9.152;2023-03-01T01:36:34;-0.40;99.90
1950;DHT22;975;48.760;9.152;2023-03-01T01:39:02;-0.40;99.90
1950;DHT22;975;48.760;9.152;2023-03-01T01:41:29;-0.50;99.90
1950;DHT22;975;48.760;9.152;2023-03-01T01:44:25;-0.50;99.90
1950;DHT22;975;48.760;9.152;2023-03-01T01:46:54;-0.50;99.90
1950;DHT22;975;48.760;9.152;2023-03-01T01:49:27;-0.60;99.90
1950;DHT22;975;48.760;9.152;2023-03-01T01:52:00;-0.50;99.90
1950;DHT22;975;48.760;9.152;2023-03-01T01:54:34;-0.60;99.90
1950;DHT22;975;48.760;9.152;2023-03-01T01:57:05;-0.60;99.90
1950;DHT22;975;48.760;9.152;2023-03-01T02:02:05;-0.60;99.90
1950;DHT22;975;48.760;9.152;2023-03-01T02:04:33;-0.40;99.90
1950;DHT22;975;48.760;9.152;2023-03-01T02:07:06;-0.40;99.90
1950;DHT22;975;48.760;9.152;2023-03-01T02:09:36;-0.30;99.90
1950;DHT22;975;48.760;9.152;2023-03-01T02:12:04;-0.20;99.90
1950;DHT22;975;48.760;9.152;2023-03-01T02:14:32;-0.10;99.90
1950;DHT22;975;48.760;9.152;2023-03-01T02:17:01;-0.10;99.90
1950;DHT22;975;48.760;9.152;2023-03-01T02:19:38;0.10;99.90
1950;DHT22;975;48.760;9.152;2023-03-01T02:22:15;0.20;99.90
1950;DHT22;975;48.760;9.152;2023-03-01T02:24:52;0.30;99.90
1950;DHT22;975;48.760;9.152;2023-03-01T02:27:33;0.30;99.90
1950;DHT22;975;48.760;9.152;2023-03-01T02:30:06;0.40;99.90
1950;DHT22;975;48.760;9.152;2023-03-01T02:32:34;0.30;99.90
1950;DHT22;975;48.760;9.152;2023-03-01T02:35:01;0.40;99.90
1950;DHT22;975;48.760;9.152;2023-03-01T02:37:32;0.40;99.90
1950;DHT22;975;48.760;9.152;2023-03-01T02:40:03;0.50;99.90
1950;DHT22;975;48.760;9.152;2023-03-01T02:42:36;0.50;99.90
1950;DHT22;975;48.760;9.152;2023-03-01T02:45:09;0.60;99.90
1950;DHT22;975;48.760;9.152;2023-03-01T02:47:40;0.60;99.90
1950;DHT22;975;48.760;9.152;2023-03-01T02:50:19;0.60;99.90
1950;DHT22;975;48.760;9.152;2023-03-01T02:52:56;0.60;99.90
1950;DHT22;975;48.760;9.152;2023-03-01T02:55:26;0.70;99.90
1950;DHT22;975;48.760;9.152;2023-03-01T02:57:57;0.70;99.90
1950;DHT22;975;48.760;9.152;2023-03-01T03:00:29;0.60;99.90
1950;DHT22;975;48.760;9.152;2023-03-01T03:02:59;0.70;99.90
1950;DHT22;975;48.760;9.152;2023-03-01T03:05:32;0.70;99.90
1950;DHT22;975;48.760;9.152;2023-03-01T03:08:01;0.80;99.90
1950;DHT22;975;48.760;9.152;2023-03-01T03:10:33;0.90;99.90
1950;DHT22;975;48.760;9.152;2023-03-01T03:13:03;0.90;99.70
1950;DHT22;975;48.760;9.152;2023-03-01T03:15:32;1.00;99.70
1950;DHT22;975;48.760;9.152;2023-03-01T03:18:03;0.90;99.50
1950;DHT22;975;48.760;9.152;2023-03-01T03:20:34;0.90;99.50
1950;DHT22;975;48.760;9.152;2023-03-01T03:23:04;0.80;99.80
1950;DHT22;975;48.760;9.152;2023-03-01T03:25:33;0.90;99.90
1950;DHT22;975;48.760;9.152;2023-03-01T03:28:03;0.90;99.60
1950;DHT22;975;48.760;9.152;2023-03-01T03:30:40;0.90;99.70
1950;DHT22;975;48.760;9.152;2023-03-01T03:33:07;1.00;99.70
1950;DHT22;975;48.760;9.152;2023-03-01T03:35:40;1.00;99.60
1950;DHT22;975;48.760;9.152;2023-03-01T03:38:09;1.00;99.60
1950;DHT22;975;48.760;9.152;2023-03-01T03:40:42;1.00;99.90
1950;DHT22;975;48.760;9.152;2023-03-01T03:43:11;1.10;99.70
1950;DHT22;975;48.760;9.152;2023-03-01T03:45:44;1.20;99.30
1950;DHT22;975;48.760;9.152;2023-03-01T03:48:11;1.20;99.40
1950;DHT22;975;48.760;9.152;2023-03-01T03:50:39;1.20;99.40
1950;DHT22;975;48.760;9.152;2023-03-01T03:53:10;1.30;99.20
1950;DHT22;975;48.760;9.152;2023-03-01T03:55:38;1.30;99.10
1950;DHT22;975;48.760;9.152;2023-03-01T03:58:06;1.30;99.10
1950;DHT22;975;48.760;9.152;2023-03-01T04:00:34;1.20;99.20
1950;DHT22;975;48.760;9.152;2023-03-01T04:03:03;1.10;99.50
1950;DHT22;975;48.760;9.152;2023-03-01T04:05:30;1.20;99.60
1950;DHT22;975;48.760;9.152;2023-03-01T04:07:58;1.20;99.40
1950;DHT22;975;48.760;9.152;2023-03-01T04:10:32;1.20;99.30
1950;DHT22;975;48.760;9.152;2023-03-01T04:12:59;1.20;99.40
1950;DHT22;975;48.760;9.152;2023-03-01T04:15:27;1.20;99.40
1950;DHT22;975;48.760;9.152;2023-03-01T04:17:55;1.30;99.40
1950;DHT22;975;48.760;9.152;2023-03-01T04:20:25;1.50;99.30
1950;DHT22;975;48.760;9.152;2023-03-01T04:22:57;1.50;99.20
1950;DHT22;975;48.760;9.152;2023-03-01T04:25:25;1.50;98.70
1950;DHT22;975;48.760;9.152;2023-03-01T04:27:52;1.60;98.60
1950;DHT22;975;48.760;9.152;2023-03-01T04:30:22;1.60;98.50
1950;DHT22;975;48.760;9.152;2023-03-01T04:32:51;1.60;98.60
1950;DHT22;975;48.760;9.152;2023-03-01T04:35:18;1.50;98.60
1950;DHT22;975;48.760;9.152;2023-03-01T04:37:53;1.60;98.70
1950;DHT22;975;48.760;9.152;2023-03-01T04:40:20;1.50;98.70
1950;DHT22;975;48.760;9.152;2023-03-01T04:42:47;1.50;98.80
1950;DHT22;975;48.760;9.152;2023-03-01T04:45:15;1.50;98.80
1950;DHT22;975;48.760;9.152;2023-03-01T04:47:43;1.50;98.80
1950;DHT22;975;48.760;9.152;2023-03-01T04:50:13;1.60;98.80
1950;DHT22;975;48.760;9.152;2023-03-01T04:52:41;1.60;98.60
1950;DHT22;975;48.760;9.152;2023-03-01T04:55:10;1.70;98.60
1950;DHT22;975;48.760;9.152;2023-03-01T04:57:38;1.70;98.50
1950;DHT22;975;48.760;9.152;2023-03-01T05:00:13;1.80;98.40
1950;DHT22;975;48.760;9.152;2023-03-01T05:02:48;1.90;98.20
1950;DHT22;975;48.760;9.152;2023-03-01T05:05:20;1.90;98.20
1950;DHT22;975;48.760;9.152;2023-03-01T05:07:52;2.00;98.10
1950;DHT22;975;48.760;9.152;2023-03-01T05:10:21;2.00;98.00
1950;DHT22;975;48.760;9.152;2023-03-01T05:12:48;1.90;98.00
1950;DHT22;975;48.760;9.152;2023-03-01T05:15:18;1.90;98.10
1950;DHT22;975;48.760;9.152;2023-03-01T05:17:49;2.00;98.10
1950;DHT22;975;48.760;9.152;2023-03-01T05:20:17;2.00;97.80
1950;DHT22;975;48.760;9.152;2023-03-01T05:22:48;1.90;98.10
1950;DHT22;975;48.760;9.152;2023-03-01T05:25:16;1.90;98.20
1950;DHT22;975;48.760;9.152;2023-03-01T05:27:45;1.90;98.10
1950;DHT22;975;48.760;9.152;2023-03-01T05:30:13;1.80;98.20
1950;DHT22;975;48.760;9.152;2023-03-01T05:32:41;1.80;98.50
1950;DHT22;975;48.760;9.152;2023-03-01T05:35:11;1.80;98.40
1950;DHT22;975;48.760;9.152;2023-03-01T05:37:41;1.90;98.30
1950;DHT22;975;48.760;9.152;2023-03-01T05:40:11;1.90;98.40
1950;DHT22;975;48.760;9.152;2023-03-01T05:42:44;1.80;98.40
1950;DHT22;975;48.760;9.152;2023-03-01T05:45:12;1.90;98.60
1950;DHT22;975;48.760;9.152;2023-03-01T05:47:40;1.80;98.30
1950;DHT22;975;48.760;9.152;2023-03-01T05:50:12;1.70;98.80
1950;DHT22;975;48.760;9.152;2023-03-01T05:52:39;1.70;98.70
1950;DHT22;975;48.760;9.152;2023-03-01T05:55:08;1.70;98.70
1950;DHT22;975;48.760;9.152;2023-03-01T05:57:38;1.80;98.60
1950;DHT22;975;48.760;9.152;2023-03-01T06:00:11;1.90;98.40
1950;DHT22;975;48.760;9.152;2023-03-01T06:02:39;1.90;98.20
1950;DHT22;975;48.760;9.152;2023-03-01T06:05:08;1.90;98.40
1950;DHT22;975;48.760;9.152;2023-03-01T06:07:39;2.00;98.30
1950;DHT22;975;48.760;9.152;2023-03-01T06:10:08;1.90;98.30
1950;DHT22;975;48.760;9.152;2023-03-01T06:12:37;2.00;98.40
1950;DHT22;975;48.760;9.152;2023-03-01T06:15:06;2.00;98.30
1950;DHT22;975;48.760;9.152;2023-03-01T06:17:38;2.10;98.20
1950;DHT22;975;48.760;9.152;2023-03-01T06:20:08;2.00;98.10
1950;DHT22;975;48.760;9.152;2023-03-01T06:22:36;1.90;98.30
1950;DHT22;975;48.760;9.152;2023-03-01T06:25:04;2.00;98.20
1950;DHT22;975;48.760;9.152;2023-03-01T06:27:32;2.00;98.30
1950;DHT22;975;48.760;9.152;2023-03-01T06:29:59;2.00;98.20
1950;DHT22;975;48.760;9.152;2023-03-01T06:32:27;1.90;98.40
1950;DHT22;975;48.760;9.152;2023-03-01T06:34:55;2.00;98.20
1950;DHT22;975;48.760;9.152;2023-03-01T06:37:24;1.90;98.10
1950;DHT22;975;48.760;9.152;2023-03-01T06:39:51;2.00;98.40
1950;DHT22;975;48.760;9.152;2023-03-01T06:42:18;2.00;98.20
1950;DHT22;975;48.760;9.152;2023-03-01T06:44:48;2.00;98.10
1950;DHT22;975;48.760;9.152;2023-03-01T06:47:16;2.10;98.10
1950;DHT22;975;48.760;9.152;2023-03-01T06:49:43;2.20;98.10
1950;DHT22;975;48.760;9.152;2023-03-01T06:52:11;2.30;98.00
1950;DHT22;975;48.760;9.152;2023-03-01T06:54:38;2.40;98.10
1950;DHT22;975;48.760;9.152;2023-03-01T06:57:12;2.50;97.50
1950;DHT22;975;48.760;9.152;2023-03-01T06:59:42;2.50;97.40
1950;DHT22;975;48.760;9.152;2023-03-01T07:02:11;2.40;97.30
1950;DHT22;975;48.760;9.152;2023-03-01T07:04:41;2.40;97.40
1950;DHT22;975;48.760;9.152;2023-03-01T07:07:13;2.50;97.50
1950;DHT22;975;48.760;9.152;2023-03-01T07:09:40;2.50;97.30
1950;DHT22;975;48.760;9.152;2023-03-01T07:12:08;2.60;97.20
1950;DHT22;975;48.760;9.152;2023-03-01T07:14:35;2.80;97.10
1950;DHT22;975;48.760;9.152;2023-03-01T07:17:02;2.80;96.90
1950;DHT22;975;48.760;9.152;2023-03-01T07:19:29;2.90;96.50
1950;DHT22;975;48.760;9.152;2023-03-01T07:21:56;2.90;96.40
1950;DHT22;975;48.760;9.152;2023-03-01T07:24:31;2.80;96.50
1950;DHT22;975;48.760;9.152;2023-03-01T07:26:58;2.80;96.40
1950;DHT22;975;48.760;9.152;2023-03-01T07:29:25;2.70;96.50
1950;DHT22;975;48.760;9.152;2023-03-01T07:31:54;2.70;96.40
1950;DHT22;975;48.760;9.152;2023-03-01T07:34:21;2.60;96.70
1950;DHT22;975;48.760;9.152;2023-03-01T07:36:51;2.50;97.10
1950;DHT22;975;48.760;9.152;2023-03-01T07:39:22;2.60;96.90
1950;DHT22;975;48.760;9.152;2023-03-01T07:41:51;2.80;96.80
1950;DHT22;975;48.760;9.152;2023-03-01T07:44:18;2.80;96.50
1950;DHT22;975;48.760;9.152;2023-03-01T07:46:46;2.90;96.50
1950;DHT22;975;48.760;9.152;2023-03-01T07:49:13;3.10;96.10
1950;DHT22;975;48.760;9.152;2023-03-01T08:33:59;3.30;95.80
1950;DHT22;975;48.760;9.152;2023-03-01T08:36:29;3.90;94.40
1950;DHT22;975;48.760;9.152;2023-03-01T08:38:57;3.90;94.40
1950;DHT22;975;48.760;9.152;2023-03-01T08:41:27;4.00;94.30
1950;DHT22;975;48.760;9.152;2023-03-01T08:43:55;4.10;94.10
1950;DHT22;975;48.760;9.152;2023-03-01T08:46:25;4.10;94.00
1950;DHT22;975;48.760;9.152;2023-03-01T08:48:52;4.30;94.00
1950;DHT22;975;48.760;9.152;2023-03-01T10:11:17;4.40;93.50
1950;DHT22;975;48.760;9.152;2023-03-01T10:54:39;5.40;91.50
1950;DHT22;975;48.760;9.152;2023-03-01T11:17:23;6.30;87.70
1950;DHT22;975;48.760;9.152;2023-03-01T11:20:02;6.50;86.00
1950;DHT22;975;48.760;9.152;2023-03-01T11:22:33;6.30;87.30
1950;DHT22;975;48.760;9.152;2023-03-01T11:25:02;6.10;87.70
1950;DHT22;975;48.760;9.152;2023-03-01T11:27:32;6.30;88.40
1950;DHT22;975;48.760;9.152;2023-03-01T11:30:02;6.30;87.00
1950;DHT22;975;48.760;9.152;2023-03-01T11:32:35;6.30;87.70
1950;DHT22;975;48.760;9.152;2023-03-01T11:35:10;6.60;88.50
1950;DHT22;975;48.760;9.152;2023-03-01T13:57:46;6.90;87.30
1950;DHT22;975;48.760;9.152;2023-03-01T14:00:35;11.10;72.60
1950;DHT22;975;48.760;9.152;2023-03-01T14:05:31;11.30;73.00
1950;DHT22;975;48.760;9.152;2023-03-01T14:08:00;10.70;72.80
1950;DHT22;975;48.760;9.152;2023-03-01T14:10:41;10.50;73.30
1950;DHT22;975;48.760;9.152;2023-03-01T14:13:26;10.60;73.60
1950;DHT22;975;48.760;9.152;2023-03-01T14:16:03;10.50;73.80
1950;DHT22;975;48.760;9.152;2023-03-01T14:18:36;10.30;73.70
1950;DHT22;975;48.760;9.152;2023-03-01T14:21:07;10.40;74.40
1950;DHT22;975;48.760;9.152;2023-03-01T14:23:46;10.50;73.70
1950;DHT22;975;48.760;9.152;2023-03-01T14:26:13;10.60;73.60
1950;DHT22;975;48.760;9.152;2023-03-01T14:28:48;10.60;74.30
1950;DHT22;975;48.760;9.152;2023-03-01T14:31:45;10.80;73.20
1950;DHT22;975;48.760;9.152;2023-03-01T14:34:19;10.40;74.30
1950;DHT22;975;48.760;9.152;2023-03-01T14:36:48;10.40;74.80
1950;DHT22;975;48.760;9.152;2023-03-01T14:39:24;10.50;73.90
1950;DHT22;975;48.760;9.152;2023-03-01T14:41:57;10.50;74.60
1950;DHT22;975;48.760;9.152;2023-03-01T14:44:30;10.60;74.30
1950;DHT22;975;48.760;9.152;2023-03-01T14:47:15;10.70;73.90
1950;DHT22;975;48.760;9.152;2023-03-01T14:49:45;10.60;73.50
1950;DHT22;975;48.760;9.152;2023-03-01T14:52:21;10.50;74.30
1950;DHT22;975;48.760;9.152;2023-03-01T14:54:52;10.20;74.70
1950;DHT22;975;48.760;9.152;2023-03-01T14:57:23;10.00;75.70
1950;DHT22;975;48.760;9.152;2023-03-01T14:59:53;10.10;75.50
1950;DHT22;975;48.760;9.152;2023-03-01T15:02:24;10.20;75.60
1950;DHT22;975;48.760;9.152;2023-03-01T15:05:02;10.10;75.40
1950;DHT22;975;48.760;9.152;2023-03-01T15:07:37;10.00;76.00
1950;DHT22;975;48.760;9.152;2023-03-01T15:10:17;10.00;76.10
1950;DHT22;975;48.760;9.152;2023-03-01T15:12:50;10.00;76.00
1950;DHT22;975;48.760;9.152;2023-03-01T15:15:21;9.70;76.40
1950;DHT22;975;48.760;9.152;2023-03-01T15:17:54;9.70;76.90
1950;DHT22;975;48.760;9.152;2023-03-01T15:20:24;9.70;76.90
1950;DHT22;975;48.760;9.152;2023-03-01T15:22:55;9.70;77.00
1950;DHT22;975;48.760;9.152;2023-03-01T15:25:27;9.70;76.90
1950;DHT22;975;48.760;9.152;2023-03-01T15:27:57;9.70;77.10
1950;DHT22;975;48.760;9.152;2023-03-01T15:30:27;9.60;77.60
1950;DHT22;975;48.760;9.152;2023-03-01T15:33:29;9.40;77.80
1950;DHT22;975;48.760;9.152;2023-03-01T15:36:00;9.30;78.00
1950;DHT22;975;48.760;9.152;2023-03-01T15:38:35;9.30;78.40
1950;DHT22;975;48.760;9.152;2023-03-01T15:41:22;9.10;78.60
1950;DHT22;975;48.760;9.152;2023-03-01T15:43:51;9.00;78.70
1950;DHT22;975;48.760;9.152;2023-03-01T15:46:23;9.00;78.70
1950;DHT22;975;48.760;9.152;2023-03-01T15:48:54;8.90;79.10
1950;DHT22;975;48.760;9.152;2023-03-01T15:51:27;8.80;79.10
1950;DHT22;975;48.760;9.152;2023-03-01T15:54:05;8.80;79.50
1950;DHT22;975;48.760;9.152;2023-03-01T15:56:35;8.70;80.00
1950;DHT22;975;48.760;9.152;2023-03-01T15:59:09;8.70;80.10
1950;DHT22;975;48.760;9.152;2023-03-01T16:01:43;8.70;80.10
1950;DHT22;975;48.760;9.152;2023-03-01T16:04:11;8.80;79.50
1950;DHT22;975;48.760;9.152;2023-03-01T16:06:50;8.80;78.80
1950;DHT22;975;48.760;9.152;2023-03-01T16:09:22;8.60;78.70
1950;DHT22;975;48.760;9.152;2023-03-01T16:11:53;8.60;78.90
1950;DHT22;975;48.760;9.152;2023-03-01T16:14:21;8.60;78.40
1950;DHT22;975;48.760;9.152;2023-03-01T16:16:52;8.40;79.20
1950;DHT22;975;48.760;9.152;2023-03-01T16:19:21;8.40;79.20
1950;DHT22;975;48.760;9.152;2023-03-01T16:21:53;8.40;79.40
1950;DHT22;975;48.760;9.152;2023-03-01T16:24:21;8.40;79.20
1950;DHT22;975;48.760;9.152;2023-03-01T16:26:49;8.20;79.30
1950;DHT22;975;48.760;9.152;2023-03-01T16:29:18;8.20;79.90
1950;DHT22;975;48.760;9.152;2023-03-01T16:31:46;8.10;79.60
1950;DHT22;975;48.760;9.152;2023-03-01T16:34:21;8.10;79.80
1950;DHT22;975;48.760;9.152;2023-03-01T16:36:55;8.10;79.70
1950;DHT22;975;48.760;9.152;2023-03-01T16:39:22;8.10;79.90
1950;DHT22;975;48.760;9.152;2023-03-01T16:41:52;8.00;80.00
1950;DHT22;975;48.760;9.152;2023-03-01T16:44:25;8.00;80.40
1950;DHT22;975;48.760;9.152;2023-03-01T16:46:52;8.00;80.60
1950;DHT22;975;48.760;9.152;2023-03-01T16:49:20;8.00;81.10
1950;DHT22;975;48.760;9.152;2023-03-01T16:51:48;8.00;80.70
1950;DHT22;975;48.760;9.152;2023-03-01T16:54:16;7.90;80.60
1950;DHT22;975;48.760;9.152;2023-03-01T16:56:51;7.90;80.70
1950;DHT22;975;48.760;9.152;2023-03-01T16:59:19;7.90;80.60
1950;DHT22;975;48.760;9.152;2023-03-01T17:01:51;7.70;81.20
1950;DHT22;975;48.760;9.152;2023-03-01T17:04:21;7.70;81.00
1950;DHT22;975;48.760;9.152;2023-03-01T17:06:49;7.80;81.60
1950;DHT22;975;48.760;9.152;2023-03-01T17:09:27;7.60;81.90
1950;DHT22;975;48.760;9.152;2023-03-01T17:11:58;7.60;82.30
1950;DHT22;975;48.760;9.152;2023-03-01T17:14:26;7.60;82.20
1950;DHT22;975;48.760;9.152;2023-03-01T17:17:04;7.50;82.70
1950;DHT22;975;48.760;9.152;2023-03-01T17:19:38;7.50;82.70
1950;DHT22;975;48.760;9.152;2023-03-01T17:22:12;7.50;82.70
1950;DHT22;975;48.760;9.152;2023-03-01T17:24:45;7.60;82.60
1950;DHT22;975;48.760;9.152;2023-03-01T17:27:15;7.60;82.20
1950;DHT22;975;48.760;9.152;2023-03-01T17:29:44;7.50;82.20
1950;DHT22;975;48.760;9.152;2023-03-01T17:32:13;7.50;82.70
1950;DHT22;975;48.760;9.152;2023-03-01T17:34:43;7.50;82.60
1950;DHT22;975;48.760;9.152;2023-03-01T17:37:13;7.50;82.70
1950;DHT22;975;48.760;9.152;2023-03-01T17:39:45;7.50;83.00
1950;DHT22;975;48.760;9.152;2023-03-01T17:42:15;7.50;83.00
1950;DHT22;975;48.760;9.152;2023-03-01T17:44:42;7.50;83.50
1950;DHT22;975;48.760;9.152;2023-03-01T17:47:10;7.40;83.30
1950;DHT22;975;48.760;9.152;2023-03-01T17:49:42;7.50;84.10
1950;DHT22;975;48.760;9.152;2023-03-01T17:52:13;7.30;84.10
1950;DHT22;975;48.760;9.152;2023-03-01T17:54:40;7.20;84.50
1950;DHT22;975;48.760;9.152;2023-03-01T17:57:08;7.20;84.90
1950;DHT22;975;48.760;9.152;2023-03-01T17:59:35;7.10;85.00
1950;DHT22;975;48.760;9.152;2023-03-01T18:02:03;7.00;85.10
1950;DHT22;975;48.760;9.152;2023-03-01T18:04:30;6.90;84.70
1950;DHT22;975;48.760;9.152;2023-03-01T18:07:01;6.80;84.90
1950;DHT22;975;48.760;9.152;2023-03-01T18:09:28;6.70;85.30
1950;DHT22;975;48.760;9.152;2023-03-01T18:11:56;6.70;85.50
1950;DHT22;975;48.760;9.152;2023-03-01T18:14:24;6.70;85.50
1950;DHT22;975;48.760;9.152;2023-03-01T18:16:57;6.70;85.60
1950;DHT22;975;48.760;9.152;2023-03-01T18:19:25;6.60;85.70
1950;DHT22;975;48.760;9.152;2023-03-01T18:22:00;6.60;85.90
1950;DHT22;975;48.760;9.152;2023-03-01T18:24:28;6.60;86.20
1950;DHT22;975;48.760;9.152;2023-03-01T18:26:57;6.60;86.50
1950;DHT22;975;48.760;9.152;2023-03-01T18:29:26;6.80;86.50
1950;DHT22;975;48.760;9.152;2023-03-01T18:31:54;6.60;86.60
1950;DHT22;975;48.760;9.152;2023-03-01T18:34:24;6.50;86.70
1950;DHT22;975;48.760;9.152;2023-03-01T18:36:58;6.40;88.30
1950;DHT22;975;48.760;9.152;2023-03-01T18:41:55;6.10;89.30
1950;DHT22;975;48.760;9.152;2023-03-01T18:44:26;6.10;90.10
1950;DHT22;975;48.760;9.152;2023-03-01T18:47:03;6.00;90.10
1950;DHT22;975;48.760;9.152;2023-03-01T18:49:33;5.90;90.30
1950;DHT22;975;48.760;9.152;2023-03-01T18:52:02;5.80;90.60
1950;DHT22;975;48.760;9.152;2023-03-01T18:54:31;5.70;90.70
1950;DHT22;975;48.760;9.152;2023-03-01T18:57:04;5.60;90.80
1950;DHT22;975;48.760;9.152;2023-03-01T18:59:31;5.50;91.00
1950;DHT22;975;48.760;9.152;2023-03-01T19:01:59;5.40;91.10
1950;DHT22;975;48.760;9.152;2023-03-01T19:04:28;5.30;91.30
1950;DHT22;975;48.760;9.152;2023-03-01T19:07:01;5.20;91.50
1950;DHT22;975;48.760;9.152;2023-03-01T19:09:30;5.20;91.40
1950;DHT22;975;48.760;9.152;2023-03-01T19:12:06;5.10;91.50
1950;DHT22;975;48.760;9.152;2023-03-01T19:14:36;5.10;91.70
1950;DHT22;975;48.760;9.152;2023-03-01T19:17:06;5.00;91.90
1950;DHT22;975;48.760;9.152;2023-03-01T19:19:33;4.90;92.10
1950;DHT22;975;48.760;9.152;2023-03-01T19:22:03;4.90;92.30
1950;DHT22;975;48.760;9.152;2023-03-01T19:24:37;4.80;92.50
1950;DHT22;975;48.760;9.152;2023-03-01T19:27:07;4.70;92.70
1950;DHT22;975;48.760;9.152;2023-03-01T19:32:07;4.60;92.80
1950;DHT22;975;48.760;9.152;2023-03-01T19:34:34;4.50;93.00
1950;DHT22;975;48.760;9.152;2023-03-01T19:37:03;4.50;93.10
1950;DHT22;975;48.760;9.152;2023-03-01T19:39:31;4.60;93.30
1950;DHT22;975;48.760;9.152;2023-03-01T19:42:00;4.40;93.50
1950;DHT22;975;48.760;9.152;2023-03-01T19:44:28;4.40;93.20
1950;DHT22;975;48.760;9.152;2023-03-01T19:46:56;4.30;93.40
1950;DHT22;975;48.760;9.152;2023-03-01T19:49:28;4.20;93.80
1950;DHT22;975;48.760;9.152;2023-03-01T19:52:01;4.20;93.90
1950;DHT22;975;48.760;9.152;2023-03-01T19:54:28;4.10;94.20
1950;DHT22;975;48.760;9.152;2023-03-01T19:56:56;4.00;94.40
1950;DHT22;975;48.760;9.152;2023-03-01T19:59:33;4.00;94.40
1950;DHT22;975;48.760;9.152;2023-03-01T20:02:03;4.00;94.50
1950;DHT22;975;48.760;9.152;2023-03-01T20:04:38;3.90;94.70
1950;DHT22;975;48.760;9.152;2023-03-01T20:07:11;3.90;94.70
1950;DHT22;975;48.760;9.152;2023-03-01T20:09:41;3.80;94.70
1950;DHT22;975;48.760;9.152;2023-03-01T20:12:13;3.80;95.10
1950;DHT22;975;48.760;9.152;2023-03-01T20:14:48;3.80;95.00
1950;DHT22;975;48.760;9.152;2023-03-01T20:17:17;3.70;95.00
1950;DHT22;975;48.760;9.152;2023-03-01T20:19:48;3.70;95.20
1950;DHT22;975;48.760;9.152;2023-03-01T21:46:23;3.70;95.40
